Mostar, Bosna i Hercegovina

01:18 AM CEST on Kolovoz 27, 2016 (GMT +0200)
Mostar | | Change Station

Elev 154 ft 43.29 °N, 17.84 °E | Updated 18 minutes ago

Clear
Vedro
77 °F
Feels Like 77 °F
S
4
Vjetar Varijabla smjera vjetra Vjetar from JJI

Danas
High -- | Low -- °F
--% Chance of Precip.
Jučer
High -- | Low -- °F
Precip. -- u
Pritisak 30.04 u
Vidljivost -9999.0 milja
Oblaci
Točka rose 57 °F
Vlažnost 50%
Kiša 0.00 u
Visina snijega Not available.
6:07 AM 7:32 PM
Mlađak, 30% visible
METAR LQMO 262300Z 16003KT 100V180 CAVOK 25/14 Q1017
Pritisak 30.04 u
Vidljivost -9999.0 milja
Oblaci
Točka rose 57 °F
Vlažnost 50%
Kiša 0.00 u
Visina snijega Not available.
6:07 AM 7:32 PM
Mlađak, 30% visible
METAR LQMO 262300Z 16003KT 100V180 CAVOK 25/14 Q1017

10-Day Weather Forecast

No radar image for this location.
×

Almanac

Astronomija

Aug. 27, 2016 Izlazak Zalazak
Trenutno vrijeme
Civilni sumrak
Nautički sumrak
Astronomski sumrak
Moon
Duljina trajanja vidljive svjetlosti
Duljina dana
Tomorrow will be .
, % of the Moon is Illuminated

Današnji ekstremi

Country Highs Country Lows

Community

WunderPhotos

Upload Photos

1,935,254 photos uploaded!

WunderBlog® & News

Nearby

Kvalitet zraka

  Kvalitet zraka AQ Index Zagadjenje
Not available.

Visina snijega

Station Depth Visina

Earthquake Activity

Grad Distance Mag. Time & Date
Minimum magnitude displayed is 2.5.

Coastal Water Temperatures

Mjesto Temperatura

Stations

Nearby Weather Stations

Lokacija stanice Temp. Subjektivni osjećaj Točka rose Vlažnost Vjetar Precip. Elev Ažurirano Tip